Tropical Cyclones
[Index]
Main Index Home Page Stock Weather Photos Extreme Storms Discussion Storm News and Storm Chasing Reports Tropical Cyclones / Hurricanes / Typhoons Weather Data and Links Wild Fires / Bushfires Weather Observation Techniques Weather Picture Catalogue Tornado Pictures and Reports Stock Video Footage and DVDs for sale
Season 2001-2002 Tropical Cyclone BONNIE Track Map
Season 2001-2002 Summaries: [BoM-AU] [JTWC-AU] [JTWC-SIO] [JTWC-SPAC] [JTWC-SH]
<<- Previous TC | JTWC 2001-2002 Season | Next TC ->>

click for intensity scale information  Lat/long Grid: Show Hide

 Date Labels: Show Hide

Joint Typhoon Warning Centre Cyclone Data

Name: BONNIE

09 Apr 2002 06:00 UTC to 15 Apr 2002 12:00 UTC

    date/time    lat    long     hPa   cat  kts
2002-04-09 06    7.8   129.2    1002         25          
2002-04-09 12    8.2   128.7    1002         25          
2002-04-09 18    8.8   128.1    1002         25          
2002-04-10 00    9.2   126.9    1000         30          
2002-04-10 06    9.6   125.6    1000         30          
2002-04-10 12   10.0   124.4    1000         30          
2002-04-10 18   10.1   123.2     997         35          
2002-04-11 00   10.1   122.0     994    1    40          
2002-04-11 06   10.1   120.8     991    1    45          
2002-04-11 12   10.1   119.6     991    1    45          
2002-04-11 18   10.1   118.4     991    1    45          
2002-04-12 00   10.2   117.0     991    1    45          
2002-04-12 06   10.4   115.8     991    1    45          
2002-04-12 12   10.6   114.5     991    1    45          
2002-04-12 18   11.0   113.1     987    1    50          
2002-04-13 00   11.3   111.7     991    1    45          
2002-04-13 06   11.6   110.4     991    1    45          
2002-04-13 12   11.9   109.2     994    1    40          
2002-04-13 18   12.1   108.2     994    1    40          
2002-04-14 00   12.4   107.1     994    1    40          
2002-04-14 06   13.1   106.0     994    1    40          
2002-04-14 12   13.9   104.8     997         35          
2002-04-14 18   14.6   103.2     997         35          
2002-04-15 00   15.4   101.5     997         35          
2002-04-15 06   15.8    99.8     997         35          
2002-04-15 12   16.1    98.0    1000         30          
Winds are 1-min average.

Tropical cyclone tracks developed by Michael Bath using data from the Joint Typhoon Warning Centre Best Tracks and Google Maps.


[Australian Severe Weather index] [Copyright Notice] [Email Contacts] [Search This Site] [Privacy Policy]
Document: tropical_cyclone_bonnie.htm Updated: 28 June 2017